Time;durP1;ratioP1;P1;durP2;ratioP2;P2;SDS_P1;SDS_P2;PMS_P1;PMS_P2;Temp;Humidity;BMP_temperature;BMP_pressure;BME280_temperature;BME280_humidity;BME280_pressure;Samples;Min_cycle;Max_cycle;Signal;HPM_P1;HPM_P2
2023/08/25 00:02:01;;;;;;;6.70;4.93;;;;;;;29.13;47.60;100145.53;4897424;29;20056;-70
2023/08/25 00:04:29;;;;;;;8.25;5.30;;;;;;;29.13;47.97;100156.53;4897226;29;20056;-70
2023/08/25 00:06:57;;;;;;;8.52;5.55;;;;;;;29.12;47.60;100154.84;4897431;29;20045;-70
2023/08/25 00:09:25;;;;;;;9.13;5.50;;;;;;;29.10;48.09;100151.47;4897128;29;20056;-70
2023/08/25 00:11:53;;;;;;;9.55;5.72;;;;;;;29.08;47.95;100143.47;4897386;29;20080;-69
2023/08/25 00:14:22;;;;;;;7.93;5.45;;;;;;;29.07;47.76;100136.28;4897106;29;20063;-71
2023/08/25 00:16:50;;;;;;;7.45;5.57;;;;;;;29.08;47.69;100143.47;4897049;29;20453;-70
2023/08/25 00:19:20;;;;;;;8.05;5.10;;;;;;;29.06;48.04;100137.34;4897098;29;20128;-70
2023/08/25 00:21:48;;;;;;;8.30;5.20;;;;;;;29.04;47.86;100131.19;4896941;29;20060;-69
2023/08/25 00:24:16;;;;;;;7.05;5.35;;;;;;;29.02;48.25;100133.31;4896965;29;20132;-70
2023/08/25 00:26:44;;;;;;;8.05;5.25;;;;;;;29.02;47.80;100125.09;4897110;29;20072;-69
2023/08/25 00:29:12;;;;;;;7.25;5.45;;;;;;;29.01;48.27;100131.66;4896896;29;20133;-70
2023/08/25 00:31:41;;;;;;;7.22;5.05;;;;;;;29.00;47.94;100121.72;4896874;29;20055;-69
2023/08/25 00:34:12;;;;;;;10.20;5.32;;;;;;;28.99;48.17;100125.53;4896750;29;20143;-70
2023/08/25 00:36:41;;;;;;;7.60;5.40;;;;;;;28.98;48.38;100131.25;4896497;29;20092;-70
2023/08/25 00:39:10;;;;;;;8.65;5.22;;;;;;;28.96;48.22;100139.69;4897171;29;20438;-68
2023/08/25 00:41:39;;;;;;;7.57;4.82;;;;;;;28.96;47.95;100144.34;4896898;29;20058;-70
2023/08/25 00:44:07;;;;;;;8.13;5.47;;;;;;;28.94;48.18;100143.69;4896705;29;20488;-70
2023/08/25 00:46:35;;;;;;;10.23;5.25;;;;;;;28.92;48.09;100143.06;4896561;29;20051;-70
2023/08/25 00:49:04;;;;;;;6.82;5.05;;;;;;;28.90;48.35;100148.78;4896286;29;20045;-70
2023/08/25 00:51:32;;;;;;;7.25;5.03;;;;;;;28.89;48.47;100138.88;4896821;29;20054;-70
2023/08/25 00:54:03;;;;;;;7.85;5.32;;;;;;;28.88;48.02;100139.88;4896691;29;20049;-70
2023/08/25 00:56:32;;;;;;;6.95;5.18;;;;;;;28.88;48.56;100136.31;4896575;29;20052;-70
2023/08/25 00:59:01;;;;;;;7.80;5.20;;;;;;;28.87;48.42;100124.47;4896279;29;20055;-70
2023/08/25 01:01:29;;;;;;;8.35;5.50;;;;;;;28.85;48.17;100115.59;4896367;29;20139;-70
2023/08/25 01:03:57;;;;;;;6.75;5.25;;;;;;;28.85;48.71;100112.84;4896303;29;20055;-70
2023/08/25 01:06:26;;;;;;;8.32;5.38;;;;;;;28.84;48.30;100115.81;4897083;29;20135;-70
2023/08/25 01:08:54;;;;;;;7.05;5.50;;;;;;;28.83;48.33;100120.47;4896497;29;20045;-70
2023/08/25 01:11:36;;;;;;;7.78;5.18;;;;;;;28.80;48.84;100115.41;4896465;29;20044;-70
2023/08/25 01:14:11;;;;;;;7.57;5.15;;;;;;;28.79;48.42;100116.47;4896240;29;20141;-70
2023/08/25 01:16:46;;;;;;;8.07;5.13;;;;;;;28.79;48.51;100109.06;4896434;29;20117;-70
2023/08/25 01:19:37;;;;;;;7.10;5.18;;;;;;;28.78;48.53;100093.66;4896301;29;20100;-69
2023/08/25 01:22:13;;;;;;;8.88;5.55;;;;;;;28.78;48.96;100095.56;4896224;29;20053;-69
2023/08/25 01:24:43;;;;;;;7.57;5.53;;;;;;;28.77;48.97;100107.63;4896266;29;20435;-69
2023/08/25 01:27:13;;;;;;;8.65;5.60;;;;;;;28.75;48.86;100104.22;4896459;29;20117;-69
2023/08/25 01:29:43;;;;;;;6.82;5.32;;;;;;;28.74;48.92;100108.84;4896306;29;20052;-69
2023/08/25 01:32:11;;;;;;;9.18;5.07;;;;;;;28.72;48.93;100101.91;4896194;29;20153;-69
2023/08/25 01:34:40;;;;;;;8.00;5.47;;;;;;;28.71;48.82;100089.25;4896442;29;20064;-69
2023/08/25 01:37:18;;;;;;;8.48;5.43;;;;;;;28.70;48.83;100096.63;4895869;29;20057;-69
2023/08/25 01:39:50;;;;;;;8.40;5.55;;;;;;;28.68;49.13;100098.75;4896209;29;20511;-69
2023/08/25 01:42:24;;;;;;;8.90;5.20;;;;;;;28.68;48.97;100109.72;4896181;29;20048;-70
2023/08/25 01:44:55;;;;;;;7.10;5.10;;;;;;;28.67;49.11;100115.44;4896752;29;20049;-69
2023/08/25 01:47:26;;;;;;;8.50;5.40;;;;;;;28.66;48.92;100125.56;4896163;29;20425;-69
2023/08/25 01:49:57;;;;;;;7.25;4.95;;;;;;;28.66;49.10;100116.47;4896080;29;20491;-71
2023/08/25 01:52:26;;;;;;;7.82;5.28;;;;;;;28.65;48.86;100114.78;4896295;29;20049;-70
2023/08/25 01:54:54;;;;;;;7.45;5.05;;;;;;;28.64;48.87;100102.13;4896275;29;20548;-71
2023/08/25 01:57:24;;;;;;;7.10;5.28;;;;;;;28.64;49.26;100107.63;4896154;29;20052;-70
2023/08/25 01:59:52;;;;;;;7.07;4.85;;;;;;;28.64;49.24;100096.63;4896747;29;20072;-70
2023/08/25 02:02:20;;;;;;;6.85;4.95;;;;;;;28.62;49.35;100091.38;4899917;29;20136;-70
2023/08/25 02:04:48;;;;;;;7.78;5.10;;;;;;;28.61;49.07;100086.09;4899290;29;20068;-70
2023/08/25 02:07:17;;;;;;;7.55;5.13;;;;;;;28.59;48.94;100083.56;4899390;29;20483;-70
2023/08/25 02:09:45;;;;;;;7.75;5.00;;;;;;;28.60;49.10;100079.78;4899495;29;20083;-69
2023/08/25 02:12:13;;;;;;;7.38;5.43;;;;;;;28.56;49.17;100070.25;4899317;29;20144;-69
2023/08/25 02:14:42;;;;;;;7.38;5.22;;;;;;;28.57;49.22;100076.59;4899137;29;20156;-70
2023/08/25 02:17:11;;;;;;;7.20;4.57;;;;;;;28.57;49.03;100071.09;4899294;29;20052;-70
2023/08/25 02:19:39;;;;;;;9.48;4.97;;;;;;;28.55;49.07;100065.00;4899200;29;20459;-70
2023/08/25 02:22:07;;;;;;;8.20;4.97;;;;;;;28.55;49.29;100056.75;4899191;29;20053;-70
2023/08/25 02:24:35;;;;;;;7.40;5.25;;;;;;;28.50;49.42;100052.78;4899200;29;20103;-70
2023/08/25 02:27:03;;;;;;;7.72;4.97;;;;;;;28.51;49.31;100057.19;4899404;29;20455;-71
2023/08/25 02:29:32;;;;;;;7.03;4.88;;;;;;;28.52;49.12;100056.13;4900808;29;20053;-70
2023/08/25 02:32:03;;;;;;;7.57;4.95;;;;;;;28.50;49.32;100062.91;4899587;29;20053;-70
2023/08/25 02:34:31;;;;;;;6.43;4.95;;;;;;;28.50;49.14;100052.78;4899202;29;20049;-70
2023/08/25 02:36:59;;;;;;;7.40;4.88;;;;;;;28.49;49.52;100051.09;4898899;29;20062;-70
2023/08/25 02:39:27;;;;;;;6.97;4.95;;;;;;;28.49;49.39;100051.09;4898864;29;20061;-70
2023/08/25 02:41:55;;;;;;;8.82;5.55;;;;;;;28.45;49.50;100044.31;4898938;29;20052;-70
2023/08/25 02:44:24;;;;;;;10.30;5.07;;;;;;;28.46;49.35;100045.16;4899038;29;20049;-70
2023/08/25 02:46:52;;;;;;;7.60;4.78;;;;;;;28.45;49.48;100038.00;4898876;29;20060;-70
2023/08/25 02:49:21;;;;;;;7.55;5.00;;;;;;;28.42;49.32;100039.28;4898910;29;20414;-71
2023/08/25 02:51:50;;;;;;;7.65;5.30;;;;;;;28.43;49.75;100034.63;4898724;29;20055;-70
2023/08/25 02:54:18;;;;;;;6.63;4.97;;;;;;;28.42;49.25;100043.91;4898622;29;20053;-70
2023/08/25 02:56:46;;;;;;;8.30;5.20;;;;;;;28.41;49.34;100053.22;4898271;29;20049;-70
2023/08/25 02:59:14;;;;;;;7.28;4.95;;;;;;;28.40;49.36;100068.81;4898662;29;20048;-70
2023/08/25 03:01:43;;;;;;;7.80;5.20;;;;;;;28.40;49.69;100071.56;4898400;29;20135;-70
2023/08/25 03:04:11;;;;;;;6.32;4.72;;;;;;;28.39;49.70;100075.38;4898312;29;20052;-70
2023/08/25 03:06:40;;;;;;;6.40;4.85;;;;;;;28.39;49.40;100094.56;4898255;29;20103;-70
2023/08/25 03:09:09;;;;;;;7.50;5.20;;;;;;;28.39;49.28;100105.53;4898114;29;20517;-70
2023/08/25 03:11:37;;;;;;;7.82;4.82;;;;;;;28.39;49.54;100121.16;4898516;29;20151;-70
2023/08/25 03:14:05;;;;;;;6.75;5.10;;;;;;;28.36;49.61;100127.88;4898512;29;20052;-69
2023/08/25 03:16:33;;;;;;;7.45;5.10;;;;;;;28.38;49.83;100136.78;4898368;29;20100;-70
2023/08/25 03:19:01;;;;;;;5.55;4.40;;;;;;;28.36;49.78;100138.84;4898596;29;20121;-70
2023/08/25 03:21:29;;;;;;;6.55;4.68;;;;;;;28.35;49.72;100131.69;4898050;29;20079;-70
2023/08/25 03:23:59;;;;;;;7.25;4.65;;;;;;;28.35;49.80;100130.84;4898116;29;20562;-69
2023/08/25 03:26:28;;;;;;;7.32;4.95;;;;;;;28.33;49.57;100122.84;4898115;29;20092;-70
2023/08/25 03:28:56;;;;;;;7.32;4.78;;;;;;;28.34;49.34;100126.41;4898054;29;20056;-70
2023/08/25 03:31:24;;;;;;;7.07;4.70;;;;;;;28.31;49.78;100135.06;4897837;29;20136;-69
2023/08/25 03:33:52;;;;;;;5.95;4.70;;;;;;;28.32;49.58;100145.84;4897908;29;20080;-70
2023/08/25 03:36:20;;;;;;;7.20;5.20;;;;;;;28.31;49.57;100152.38;4897594;29;20048;-70
2023/08/25 03:38:49;;;;;;;7.65;5.20;;;;;;;28.29;49.78;100151.75;4897531;29;20052;-70
2023/08/25 03:41:18;;;;;;;8.15;5.57;;;;;;;28.29;49.86;100143.53;4897768;29;20060;-70
2023/08/25 03:43:46;;;;;;;7.88;5.25;;;;;;;28.27;49.61;100142.00;4897655;29;20146;-70
2023/08/25 03:46:14;;;;;;;7.00;5.10;;;;;;;28.26;49.76;100149.38;4897593;29;20088;-69
2023/08/25 03:48:42;;;;;;;7.32;5.22;;;;;;;28.27;49.89;100155.69;4897410;29;20073;-70
2023/08/25 03:51:11;;;;;;;8.75;5.30;;;;;;;28.24;49.74;100167.94;4897851;29;20105;-69
2023/08/25 03:53:39;;;;;;;8.02;5.30;;;;;;;28.23;49.51;100175.31;4897815;29;20131;-70
2023/08/25 03:56:07;;;;;;;7.00;5.18;;;;;;;28.24;49.53;100178.91;4897517;29;20053;-68
2023/08/25 03:58:37;;;;;;;8.57;5.75;;;;;;;28.23;50.00;100171.75;4897408;29;20140;-70
2023/08/25 04:01:05;;;;;;;8.98;5.70;;;;;;;28.22;49.67;100175.53;4897501;29;20053;-70
2023/08/25 04:03:33;;;;;;;8.00;5.13;;;;;;;28.19;49.96;100165.84;4897287;29;20490;-69
2023/08/25 04:06:02;;;;;;;8.27;5.70;;;;;;;28.20;49.84;100189.47;4860268;29;20412;-70
2023/08/25 04:08:30;;;;;;;8.50;5.43;;;;;;;28.17;49.80;100233.72;4860028;29;20054;-69
2023/08/25 04:10:58;;;;;;;8.88;5.28;;;;;;;28.15;49.68;100202.09;4860367;29;20073;-70
2023/08/25 04:13:27;;;;;;;9.73;5.50;;;;;;;28.13;49.88;100194.09;4860189;29;20053;-70
2023/08/25 04:15:57;;;;;;;7.45;5.40;;;;;;;28.13;49.89;100176.78;4859790;29;20091;-70
2023/08/25 04:18:25;;;;;;;6.70;5.15;;;;;;;28.12;50.09;100170.47;4859826;29;20110;-70
2023/08/25 04:20:54;;;;;;;6.78;5.00;;;;;;;28.13;49.73;100174.03;4859834;29;20053;-70
2023/08/25 04:23:24;;;;;;;6.50;5.10;;;;;;;28.12;50.12;100172.34;4859256;29;20121;-70
2023/08/25 04:25:53;;;;;;;7.13;5.32;;;;;;;28.12;49.90;100164.13;4859684;29;20057;-70
2023/08/25 04:28:21;;;;;;;8.45;5.72;;;;;;;28.11;49.83;100151.47;4859593;29;20049;-69
2023/08/25 04:30:55;;;;;;;8.57;6.18;;;;;;;28.10;49.75;100160.75;4859555;29;20109;-70
2023/08/25 04:33:24;;;;;;;10.57;6.07;;;;;;;28.11;50.13;100151.47;4859577;29;20144;-70
2023/08/25 04:35:53;;;;;;;7.93;6.03;;;;;;;28.10;50.15;100155.28;4859423;29;20050;-70
2023/08/25 04:38:21;;;;;;;9.07;5.57;;;;;;;28.10;50.02;100133.34;4859503;29;20054;-71
2023/08/25 04:40:49;;;;;;;10.30;5.80;;;;;;;28.09;49.91;100123.44;4859441;29;20053;-70
2023/08/25 04:43:17;;;;;;;7.65;5.93;;;;;;;28.09;49.82;100113.31;4859545;29;20173;-69
2023/08/25 04:45:46;;;;;;;7.22;5.78;;;;;;;28.08;49.93;100102.53;4860205;29;20050;-70
2023/08/25 04:48:14;;;;;;;8.48;5.93;;;;;;;28.07;50.22;100084.41;4859707;29;20568;-70
2023/08/25 04:50:44;;;;;;;8.25;5.85;;;;;;;28.07;49.85;100087.13;4859649;29;20117;-69
2023/08/25 04:53:12;;;;;;;8.43;5.65;;;;;;;28.07;50.20;100073.44;4859671;29;20093;-69
2023/08/25 04:55:41;;;;;;;8.68;5.85;;;;;;;28.07;49.97;100066.03;4859347;29;20121;-70
2023/08/25 04:58:09;;;;;;;7.10;5.63;;;;;;;28.06;50.01;100064.38;4859213;29;20508;-70
2023/08/25 05:00:37;;;;;;;7.22;5.43;;;;;;;28.05;50.19;100070.91;4859372;29;20060;-70
2023/08/25 05:03:09;;;;;;;8.25;5.93;;;;;;;28.05;50.00;100059.09;4859583;29;20133;-70
2023/08/25 05:05:38;;;;;;;7.90;6.18;;;;;;;28.05;50.24;100051.72;4890317;29;20056;-71
2023/08/25 05:08:08;;;;;;;7.88;5.88;;;;;;;28.04;50.25;100043.69;4896267;29;20052;-71
2023/08/25 05:10:36;;;;;;;9.10;6.25;;;;;;;28.04;50.48;100043.69;4896275;29;20633;-70
2023/08/25 05:13:05;;;;;;;7.82;5.90;;;;;;;28.03;50.58;100034.63;4896631;29;20056;-70
2023/08/25 05:15:33;;;;;;;8.15;5.80;;;;;;;28.03;50.13;100036.53;4896526;29;20104;-69
2023/08/25 05:18:01;;;;;;;8.82;6.15;;;;;;;28.03;50.39;100039.28;4896280;29;20407;-69
2023/08/25 05:20:29;;;;;;;11.93;6.25;;;;;;;28.01;50.50;100044.97;4896355;29;20056;-69
2023/08/25 05:22:57;;;;;;;7.18;6.03;;;;;;;28.02;50.68;100049.41;4896468;29;20053;-69
2023/08/25 05:25:27;;;;;;;9.80;6.22;;;;;;;28.02;50.20;100045.81;4896730;29;20052;-69
2023/08/25 05:27:56;;;;;;;8.07;6.30;;;;;;;28.01;50.33;100063.31;4897606;29;20052;-69
2023/08/25 05:30:24;;;;;;;8.98;6.18;;;;;;;27.99;50.76;100044.34;4897479;29;20052;-70
2023/08/25 05:32:52;;;;;;;8.38;6.32;;;;;;;28.00;51.06;100053.41;4897796;29;20051;-69
2023/08/25 05:35:21;;;;;;;10.23;6.43;;;;;;;27.98;50.71;100053.59;4898291;29;20554;-70
2023/08/25 05:37:50;;;;;;;9.82;6.65;;;;;;;27.98;50.89;100052.75;4900058;29;20049;-69
2023/08/25 05:40:18;;;;;;;7.75;6.28;;;;;;;27.97;50.74;100031.88;4900142;29;20067;-70
2023/08/25 05:42:50;;;;;;;10.68;6.57;;;;;;;27.95;50.82;100021.97;4900016;29;20120;-70
2023/08/25 05:45:18;;;;;;;8.83;6.00;;;;;;;27.93;50.78;100012.28;4899999;29;20049;-70
2023/08/25 05:47:47;;;;;;;9.38;6.47;;;;;;;27.96;50.66;100022.81;4899856;29;20283;-70
2023/08/25 05:50:15;;;;;;;9.80;6.60;;;;;;;27.95;50.67;100030.19;4899892;29;20056;-69
2023/08/25 05:52:45;;;;;;;8.18;6.18;;;;;;;27.95;51.11;100045.81;4899532;29;20081;-70
2023/08/25 05:55:13;;;;;;;9.27;6.18;;;;;;;27.95;50.86;100054.88;4900215;29;20051;-70
2023/08/25 05:57:42;;;;;;;8.80;6.07;;;;;;;27.97;51.08;100051.06;4899331;29;20048;-69
2023/08/25 06:00:13;;;;;;;8.23;5.90;;;;;;;27.95;50.77;100067.72;4899282;29;20084;-69
2023/08/25 06:02:42;;;;;;;8.23;6.35;;;;;;;27.93;51.04;100065.22;4899463;29;20128;-70
2023/08/25 06:05:10;;;;;;;9.30;6.15;;;;;;;27.94;50.59;100077.84;4899418;29;20060;-69
2023/08/25 06:07:39;;;;;;;8.57;6.50;;;;;;;27.95;50.75;100086.91;4899640;29;20132;-69
2023/08/25 06:10:08;;;;;;;9.15;6.75;;;;;;;27.98;50.79;100096.63;4898611;29;20442;-70
2023/08/25 06:12:37;;;;;;;7.68;6.15;;;;;;;27.97;51.01;100093.03;4898739;29;20454;-70
2023/08/25 06:15:06;;;;;;;8.73;6.25;;;;;;;27.95;50.67;100082.28;4898412;29;20463;-70
2023/08/25 06:17:35;;;;;;;10.05;6.63;;;;;;;27.97;50.63;100083.97;4898139;29;20044;-70
2023/08/25 06:20:04;;;;;;;9.20;6.45;;;;;;;27.97;50.77;100078.47;4897721;29;20054;-70
2023/08/25 06:22:33;;;;;;;8.90;6.30;;;;;;;27.98;51.13;100069.19;4898061;29;20049;-69
2023/08/25 06:25:01;;;;;;;10.57;6.53;;;;;;;27.97;50.78;100062.88;4898504;29;20128;-69
2023/08/25 06:27:29;;;;;;;9.20;6.40;;;;;;;27.95;50.92;100063.09;4898782;29;20080;-69
2023/08/25 06:29:57;;;;;;;10.07;6.63;;;;;;;27.97;50.87;100057.41;4896462;29;20070;-69
2023/08/25 06:32:26;;;;;;;8.75;5.82;;;;;;;27.97;50.87;100048.34;4902813;29;20134;-68
2023/08/25 06:34:56;;;;;;;10.52;6.25;;;;;;;27.97;50.89;100045.59;4898619;29;20041;-69
2023/08/25 06:37:24;;;;;;;7.65;6.32;;;;;;;27.95;50.99;100043.91;4898640;29;20436;-70
2023/08/25 06:39:52;;;;;;;9.68;6.55;;;;;;;27.97;51.46;100046.44;4898763;29;20068;-70
2023/08/25 06:42:20;;;;;;;10.57;6.90;;;;;;;27.98;50.97;100052.75;4898700;29;20053;-70
2023/08/25 06:44:49;;;;;;;9.60;6.47;;;;;;;27.99;51.15;100065.41;4898822;29;20489;-70
2023/08/25 06:47:17;;;;;;;9.18;6.78;;;;;;;27.99;51.27;100065.41;4898341;29;20483;-70
2023/08/25 06:49:46;;;;;;;9.73;6.50;;;;;;;27.99;51.19;100048.97;4898645;29;20049;-70
2023/08/25 06:52:15;;;;;;;10.02;6.80;;;;;;;27.98;51.30;100059.09;4898704;29;20049;-68
2023/08/25 06:54:43;;;;;;;8.73;6.63;;;;;;;27.98;51.40;100059.09;4900417;29;20076;-70
2023/08/25 06:57:11;;;;;;;8.70;7.00;;;;;;;28.00;51.38;100061.63;4898578;29;20048;-70
2023/08/25 06:59:39;;;;;;;9.50;6.43;;;;;;;28.00;51.35;100056.16;4898402;29;20052;-70
2023/08/25 07:02:08;;;;;;;9.57;7.22;;;;;;;28.00;51.10;100064.38;4897470;29;20084;-69
2023/08/25 07:04:36;;;;;;;10.00;6.70;;;;;;;28.01;51.35;100061.44;4898437;29;20088;-69
2023/08/25 07:07:06;;;;;;;9.93;6.38;;;;;;;28.02;51.77;100065.00;4898466;29;20052;-69
2023/08/25 07:09:36;;;;;;;10.25;6.93;;;;;;;28.02;51.33;100054.03;4898173;29;20049;-69
2023/08/25 07:12:05;;;;;;;8.95;6.88;;;;;;;28.03;51.67;100055.72;4898143;29;21382;-70
2023/08/25 07:14:36;;;;;;;10.52;7.22;;;;;;;28.03;51.44;100066.69;4898531;29;20127;-70
2023/08/25 07:17:04;;;;;;;10.23;7.40;;;;;;;28.02;51.34;100075.97;4898305;29;20053;-69
2023/08/25 07:19:32;;;;;;;9.05;7.53;;;;;;;28.01;51.54;100060.59;4898090;29;20049;-70
2023/08/25 07:22:01;;;;;;;10.27;7.38;;;;;;;28.02;51.74;100065.84;4897571;29;20056;-71
2023/08/25 07:24:29;;;;;;;10.95;7.07;;;;;;;28.01;51.44;100066.91;4897767;29;20104;-70
2023/08/25 07:26:58;;;;;;;12.05;7.20;;;;;;;28.02;51.27;100073.22;4897085;29;20120;-70
2023/08/25 07:29:26;;;;;;;10.77;6.88;;;;;;;28.02;51.25;100085.03;4896502;29;20049;-70
2023/08/25 07:31:54;;;;;;;9.70;7.55;;;;;;;28.03;51.67;100083.97;4896985;29;20494;-70
2023/08/25 07:34:23;;;;;;;10.20;7.03;;;;;;;28.04;51.20;100079.34;4897475;29;20135;-70
2023/08/25 07:36:51;;;;;;;11.00;7.63;;;;;;;28.04;51.42;100079.34;4896465;29;20049;-69
2023/08/25 07:39:19;;;;;;;10.65;7.38;;;;;;;28.03;51.45;100077.66;4897639;29;20459;-70
2023/08/25 07:41:51;;;;;;;11.27;7.80;;;;;;;28.05;51.58;100081.03;4897725;29;20505;-70
2023/08/25 07:44:21;;;;;;;11.93;7.55;;;;;;;28.03;51.14;100083.97;4897808;29;20080;-70
2023/08/25 07:46:49;;;;;;;13.30;8.23;;;;;;;28.03;51.18;100083.97;4897512;29;20056;-70
2023/08/25 07:49:17;;;;;;;10.73;7.93;;;;;;;28.03;51.08;100077.66;4897366;29;20112;-70
2023/08/25 07:51:45;;;;;;;11.70;7.68;;;;;;;28.02;51.51;100067.75;4897623;29;20135;-70
2023/08/25 07:54:13;;;;;;;11.05;7.90;;;;;;;27.99;51.37;100070.88;4897542;29;20414;-70
2023/08/25 07:56:41;;;;;;;11.35;8.05;;;;;;;28.01;51.39;100068.81;4897445;29;20084;-69
2023/08/25 07:59:10;;;;;;;9.80;7.55;;;;;;;28.01;51.37;100061.44;4896668;29;20134;-70
2023/08/25 08:01:40;;;;;;;10.93;7.93;;;;;;;28.01;51.72;100061.44;4897183;29;20048;-69
2023/08/25 08:04:08;;;;;;;10.30;7.70;;;;;;;28.03;51.26;100055.72;4897224;29;20493;-69
2023/08/25 08:06:37;;;;;;;10.80;7.88;;;;;;;28.04;51.29;100046.44;4897217;29;20049;-69
2023/08/25 08:09:06;;;;;;;11.57;7.45;;;;;;;28.03;51.43;100045.59;4897392;29;20142;-69
2023/08/25 08:11:35;;;;;;;10.10;7.82;;;;;;;28.05;51.61;100050.88;4897030;29;20486;-69
2023/08/25 08:14:03;;;;;;;10.93;7.50;;;;;;;28.05;51.38;100053.59;4897135;29;20074;-69
2023/08/25 08:16:32;;;;;;;13.85;7.70;;;;;;;28.05;51.19;100043.50;4896935;29;20056;-69
2023/08/25 08:19:06;;;;;;;;;;;;;;;28.05;51.66;100048.13;4897460;29;20059;-70
2023/08/25 08:21:34;;;;;;;9.75;7.07;;;;;;;28.06;51.61;100056.13;4897050;29;20002;-70
2023/08/25 08:24:03;;;;;;;11.48;7.28;;;;;;;28.07;51.68;100057.81;4897043;29;20063;-71
2023/08/25 08:26:31;;;;;;;9.95;7.80;;;;;;;28.07;51.41;100051.50;4896812;29;20057;-70
2023/08/25 08:29:00;;;;;;;12.52;8.00;;;;;;;28.08;51.42;100055.91;4896618;29;20048;-70
2023/08/25 08:31:29;;;;;;;10.07;7.45;;;;;;;28.09;51.26;100054.91;4896961;29;20135;-70
2023/08/25 08:33:58;;;;;;;9.93;7.57;;;;;;;28.09;51.19;100061.22;4896838;29;20512;-71
2023/08/25 08:36:27;;;;;;;10.93;7.30;;;;;;;28.10;51.29;100062.06;4896843;29;20063;-70
2023/08/25 08:38:56;;;;;;;12.00;7.43;;;;;;;28.12;51.79;100057.19;4896737;29;20044;-70
2023/08/25 08:41:24;;;;;;;10.90;7.40;;;;;;;28.13;51.47;100064.38;4896453;29;20059;-70
2023/08/25 08:43:56;;;;;;;8.75;7.47;;;;;;;28.14;51.89;100066.06;4896623;29;20052;-70
2023/08/25 08:46:27;;;;;;;10.05;7.20;;;;;;;28.15;51.84;100065.00;4897307;29;20053;-70
2023/08/25 08:48:56;;;;;;;9.82;7.18;;;;;;;28.16;51.85;100064.78;4896637;29;20410;-70
2023/08/25 08:51:30;;;;;;;10.43;7.45;;;;;;;28.18;51.90;100053.59;4896702;29;20056;-70
2023/08/25 08:53:59;;;;;;;9.90;7.03;;;;;;;28.19;51.52;100052.56;4896462;29;20052;-70
2023/08/25 08:56:27;;;;;;;10.95;6.95;;;;;;;28.20;51.65;100057.00;4896747;29;20045;-69
2023/08/25 08:58:56;;;;;;;8.88;6.75;;;;;;;28.21;51.58;100051.28;4896698;29;20052;-70
2023/08/25 09:01:25;;;;;;;11.02;6.72;;;;;;;28.21;51.49;100053.19;4896512;29;20124;-70
2023/08/25 09:03:55;;;;;;;9.45;6.97;;;;;;;28.21;51.73;100050.44;4896382;29;20059;-71
2023/08/25 09:06:23;;;;;;;12.10;7.30;;;;;;;28.23;51.99;100045.59;4896420;29;20053;-70
2023/08/25 09:08:54;;;;;;;10.88;7.63;;;;;;;28.25;51.55;100040.72;4896113;29;20136;-70
2023/08/25 09:11:22;;;;;;;9.82;7.25;;;;;;;28.25;51.61;100043.47;4896302;29;20490;-70
2023/08/25 09:13:54;;;;;;;12.05;6.85;;;;;;;28.27;52.02;100040.50;4896524;29;20059;-70
2023/08/25 09:16:22;;;;;;;;;;;;;;;28.27;52.10;100049.59;4896843;29;20139;-71
2023/08/25 09:18:51;;;;;;;9.77;6.80;;;;;;;28.29;51.90;100044.78;4896404;29;19994;-70
2023/08/25 09:21:21;;;;;;;9.73;6.90;;;;;;;28.30;52.11;100041.00;4896356;29;20057;-70
2023/08/25 09:23:58;;;;;;;9.52;6.93;;;;;;;28.31;51.82;100039.94;4896696;29;20059;-70
2023/08/25 09:26:27;;;;;;;9.57;6.55;;;;;;;28.32;52.17;100038.88;4880544;29;20052;-70
2023/08/25 09:28:59;;;;;;;10.60;7.00;;;;;;;28.31;52.18;100034.44;4896310;29;20049;-70
2023/08/25 09:31:29;;;;;;;10.95;6.55;;;;;;;28.34;51.84;100033.16;4896376;29;20059;-70
2023/08/25 09:34:00;;;;;;;10.25;6.78;;;;;;;28.36;52.17;100033.78;4896133;29;20052;-70
2023/08/25 09:36:29;;;;;;;9.23;6.70;;;;;;;28.38;52.02;100029.81;4896285;29;20315;-70
2023/08/25 09:38:59;;;;;;;9.65;6.68;;;;;;;28.39;51.99;100034.22;4896268;29;20048;-69
2023/08/25 09:41:34;;;;;;;8.48;6.40;;;;;;;28.39;52.05;100028.75;4895942;29;20049;-69
2023/08/25 09:44:03;;;;;;;9.80;6.80;;;;;;;28.41;52.39;100032.09;4896043;29;20123;-70
2023/08/25 09:46:33;;;;;;;10.48;6.43;;;;;;;28.42;52.19;100027.47;4895943;29;20052;-70
2023/08/25 09:49:02;;;;;;;8.90;6.55;;;;;;;28.44;52.18;100025.34;4896143;29;20059;-70
2023/08/25 09:51:36;;;;;;;9.07;6.25;;;;;;;28.45;52.34;100027.88;4896120;29;20124;-69
2023/08/25 09:54:08;;;;;;;9.48;6.28;;;;;;;28.46;52.10;100015.00;4895825;29;20053;-69
2023/08/25 09:56:39;;;;;;;8.35;6.50;;;;;;;28.47;52.42;100017.53;4895779;29;20508;-70
2023/08/25 09:59:08;;;;;;;8.55;6.35;;;;;;;28.50;52.37;100019.84;4895848;29;20136;-69
2023/08/25 10:01:38;;;;;;;10.13;6.60;;;;;;;28.51;52.02;100016.03;4895889;29;20048;-70
2023/08/25 10:04:07;;;;;;;7.03;5.68;;;;;;;28.54;52.11;100019.41;4895745;29;20053;-70
2023/08/25 10:06:38;;;;;;;8.45;6.40;;;;;;;28.55;52.35;100010.97;4895810;29;20131;-70
2023/08/25 10:09:08;;;;;;;9.75;6.57;;;;;;;28.56;52.24;100001.66;4895723;29;20438;-70
2023/08/25 10:11:39;;;;;;;10.18;6.60;;;;;;;28.59;52.06;100003.16;4895731;29;20371;-71
2023/08/25 10:14:10;;;;;;;8.90;6.40;;;;;;;28.61;52.07;100004.63;4879519;29;20063;-70
2023/08/25 10:16:40;;;;;;;10.38;6.70;;;;;;;28.63;52.23;100002.50;4895852;29;20075;-70
2023/08/25 10:19:14;;;;;;;8.65;5.80;;;;;;;28.64;52.04;99997.84;4895824;29;20079;-70
2023/08/25 10:21:44;;;;;;;8.50;6.43;;;;;;;28.64;52.04;99995.94;4897368;29;20060;-70
2023/08/25 10:24:18;;;;;;;10.13;6.40;;;;;;;28.67;52.33;99995.53;4898990;29;20048;-70
2023/08/25 10:26:48;;;;;;;8.02;5.65;;;;;;;28.70;52.12;99994.25;4898962;29;20057;-70
2023/08/25 10:29:18;;;;;;;8.00;6.20;;;;;;;28.71;52.11;99994.03;4898988;29;20053;-70
2023/08/25 10:31:48;;;;;;;9.52;6.47;;;;;;;28.73;52.27;99996.56;4898953;29;20053;-70
2023/08/25 10:34:38;;;;;;;10.43;6.00;;;;;;;28.76;52.50;99998.88;4898869;29;20048;-70
2023/08/25 10:37:07;;;;;;;8.43;5.90;;;;;;;28.78;52.01;99992.13;4894855;29;20054;-70
2023/08/25 10:39:59;;;;;;;7.20;5.47;;;;;;;28.79;52.33;99996.53;4898846;29;20052;-70
2023/08/25 10:42:31;;;;;;;9.00;5.88;;;;;;;28.83;52.30;99996.94;4895741;29;20053;-70
2023/08/25 10:45:04;;;;;;;8.00;5.82;;;;;;;28.85;52.39;99997.56;4898627;29;20388;-70
2023/08/25 10:47:32;;;;;;;8.00;5.65;;;;;;;28.86;52.28;99996.53;4899014;29;20055;-69
2023/08/25 10:50:03;;;;;;;8.38;5.88;;;;;;;28.90;52.38;99989.56;4899121;29;20129;-69
2023/08/25 10:52:32;;;;;;;8.90;6.32;;;;;;;28.94;52.12;99990.81;4898544;29;20056;-69
2023/08/25 10:55:26;;;;;;;10.52;6.28;;;;;;;28.97;51.97;99982.16;4898723;29;20063;-69
2023/08/25 10:58:01;;;;;;;9.10;5.50;;;;;;;29.00;52.13;99983.59;4898751;29;20060;-70
2023/08/25 11:00:32;;;;;;;8.18;5.38;;;;;;;29.01;52.40;99977.88;4898698;29;20052;-70
2023/08/25 11:03:02;;;;;;;6.60;5.25;;;;;;;29.03;52.19;99970.28;4898370;29;20056;-70
2023/08/25 11:05:44;;;;;;;7.65;5.40;;;;;;;29.07;51.91;99979.78;4898361;29;20199;-70
2023/08/25 11:08:27;;;;;;;7.70;5.63;;;;;;;29.10;52.28;99978.47;4898531;29;20055;-70
2023/08/25 11:11:23;;;;;;;7.73;5.50;;;;;;;29.15;52.17;99980.59;4898480;29;20099;-70
2023/08/25 11:13:53;;;;;;;9.48;5.68;;;;;;;29.18;51.92;99977.38;4865132;29;20283;-70
2023/08/25 11:16:21;;;;;;;9.82;5.70;;;;;;;29.20;51.90;99975.25;4898187;29;20044;-70
2023/08/25 11:18:49;;;;;;;8.32;5.40;;;;;;;29.25;51.81;99979.03;4898188;29;20052;-70
2023/08/25 11:21:18;;;;;;;7.60;5.40;;;;;;;29.29;51.90;99979.44;4898064;29;20056;-70
2023/08/25 11:23:46;;;;;;;8.88;5.22;;;;;;;29.32;51.75;99970.75;4898148;29;20052;-70
2023/08/25 11:26:16;;;;;;;6.97;5.30;;;;;;;29.34;51.50;99976.88;4898191;29;20060;-70
2023/08/25 11:28:52;;;;;;;6.97;5.20;;;;;;;29.35;51.45;99967.56;4897964;29;20124;-70
2023/08/25 11:31:25;;;;;;;7.43;4.95;;;;;;;29.40;51.19;99959.50;4898025;29;20088;-71
2023/08/25 11:33:55;;;;;;;7.15;4.90;;;;;;;29.43;51.50;99961.78;4898052;29;20433;-70
2023/08/25 11:36:25;;;;;;;8.35;5.10;;;;;;;29.46;51.49;99958.63;4897847;29;20139;-71